createdAt,value
2022-11-30T00:01:15.551Z,76.26
2022-11-30T00:03:49.603Z,76.53
2022-11-30T00:06:24.036Z,76.45
2022-11-30T00:08:59.433Z,76.49
2022-11-30T00:11:32.858Z,76.61
2022-11-30T00:14:05.956Z,76.82
2022-11-30T00:16:39.744Z,76.37
2022-11-30T00:19:15.409Z,76.73
2022-11-30T00:21:49.444Z,76.83
2022-11-30T00:24:23.849Z,76.72
2022-11-30T00:26:56.763Z,76.61
2022-11-30T00:29:29.900Z,76.54
2022-11-30T00:32:03.230Z,76.61
2022-11-30T00:34:36.104Z,76.95
2022-11-30T00:37:10.139Z,76.86
2022-11-30T00:39:44.505Z,77.00
2022-11-30T00:42:17.662Z,77.27
2022-11-30T00:44:50.566Z,77.45
2022-11-30T00:47:23.660Z,77.24
2022-11-30T00:49:56.507Z,77.01
2022-11-30T00:52:30.716Z,77.36
2022-11-30T00:55:05.533Z,77.17
2022-11-30T00:57:38.757Z,77.25
2022-11-30T01:00:12.993Z,77.30
2022-11-30T01:02:46.312Z,76.88
2022-11-30T01:05:19.368Z,77.02
2022-11-30T01:07:53.029Z,76.83
2022-11-30T01:10:27.567Z,76.72
2022-11-30T01:13:00.733Z,76.77
2022-11-30T01:15:37.679Z,76.40
2022-11-30T01:18:11.419Z,76.16
2022-11-30T01:20:44.754Z,76.16
2022-11-30T01:23:18.011Z,76.21
2022-11-30T01:26:02.639Z,76.27
2022-11-30T01:28:36.804Z,76.40
2022-11-30T01:31:11.881Z,75.90
2022-11-30T01:33:45.149Z,75.88
2022-11-30T01:36:19.724Z,76.32
2022-11-30T01:38:55.102Z,76.30
2022-11-30T01:41:30.812Z,76.70
2022-11-30T01:44:37.231Z,76.59
2022-11-30T01:47:13.112Z,76.63
2022-11-30T01:49:49.655Z,77.01
2022-11-30T01:52:28.033Z,77.07
2022-11-30T01:55:09.738Z,77.30
2022-11-30T01:57:48.703Z,77.23
2022-11-30T02:00:22.700Z,77.19
2022-11-30T02:03:02.113Z,77.36
2022-11-30T02:05:39.819Z,77.21
2022-11-30T02:08:13.578Z,77.21
2022-11-30T02:10:51.106Z,76.99
2022-11-30T02:13:56.852Z,77.07
2022-11-30T02:16:41.285Z,77.29
2022-11-30T02:19:42.482Z,77.21
2022-11-30T02:22:28.143Z,76.85
2022-11-30T02:25:09.724Z,76.87
2022-11-30T02:27:59.529Z,76.74
2022-11-30T02:30:37.094Z,76.86
2022-11-30T02:33:13.550Z,76.85
2022-11-30T02:35:54.790Z,77.09
2022-11-30T02:38:29.760Z,77.36
2022-11-30T02:41:03.941Z,77.37
2022-11-30T02:43:37.565Z,77.07
2022-11-30T02:46:17.905Z,77.24
2022-11-30T02:48:58.034Z,77.36
2022-11-30T02:51:35.322Z,77.51
2022-11-30T02:54:08.491Z,77.23
2022-11-30T02:56:41.389Z,77.51
2022-11-30T02:59:14.584Z,77.49
2022-11-30T03:01:49.061Z,77.58
2022-11-30T03:04:22.097Z,77.20
2022-11-30T03:06:55.052Z,77.31
2022-11-30T03:09:28.059Z,76.85
2022-11-30T03:12:01.222Z,77.13
2022-11-30T03:14:34.598Z,76.99
2022-11-30T03:17:10.106Z,76.93
2022-11-30T03:19:43.366Z,77.09
2022-11-30T03:22:16.785Z,77.08
2022-11-30T03:24:50.355Z,77.10
2022-11-30T03:27:24.055Z,77.08
2022-11-30T03:29:57.031Z,77.10
2022-11-30T03:32:31.945Z,76.70
2022-11-30T03:35:05.392Z,76.87
2022-11-30T03:37:38.312Z,76.89
2022-11-30T03:40:12.843Z,76.86
2022-11-30T03:42:46.182Z,76.84
2022-11-30T03:45:19.319Z,76.76
2022-11-30T03:47:53.888Z,76.60
2022-11-30T03:50:27.019Z,76.71
2022-11-30T03:52:59.972Z,76.56
2022-11-30T03:55:34.238Z,76.39
2022-11-30T03:58:07.317Z,76.36
2022-11-30T04:00:41.896Z,76.44
2022-11-30T04:03:16.998Z,76.41
2022-11-30T04:05:50.163Z,76.54
2022-11-30T04:08:23.367Z,76.81
2022-11-30T04:10:58.067Z,77.13
2022-11-30T04:13:31.845Z,76.80
2022-11-30T04:16:06.559Z,77.08
2022-11-30T04:18:41.588Z,76.78
2022-11-30T04:21:14.865Z,76.71
2022-11-30T04:23:47.741Z,77.03
2022-11-30T04:26:21.086Z,76.61
2022-11-30T04:28:53.972Z,77.01
2022-11-30T04:31:26.974Z,76.78
2022-11-30T04:34:01.538Z,76.70
2022-11-30T04:36:34.786Z,76.76
2022-11-30T04:39:07.713Z,76.80
2022-11-30T04:41:41.250Z,77.29
2022-11-30T04:44:14.201Z,77.12
2022-11-30T04:46:47.195Z,77.11
2022-11-30T04:49:21.445Z,77.05
2022-11-30T04:51:54.653Z,77.15
2022-11-30T04:54:27.843Z,76.91
2022-11-30T04:57:02.993Z,77.06
2022-11-30T04:59:36.113Z,76.66
2022-11-30T05:02:09.501Z,77.01
2022-11-30T05:04:43.892Z,77.12
2022-11-30T05:07:17.190Z,76.65
2022-11-30T05:09:50.608Z,76.86
2022-11-30T05:12:23.736Z,76.96
2022-11-30T05:14:56.716Z,76.89
2022-11-30T05:17:29.585Z,76.74
2022-11-30T05:20:04.080Z,76.80
2022-11-30T05:22:37.186Z,76.63
2022-11-30T05:25:10.760Z,76.71
2022-11-30T05:27:43.831Z,76.58
2022-11-30T05:30:17.282Z,77.01
2022-11-30T05:32:50.428Z,76.81
2022-11-30T05:35:25.116Z,76.92
2022-11-30T05:37:58.284Z,77.04
2022-11-30T05:40:32.758Z,77.04
2022-11-30T05:43:06.209Z,77.07
2022-11-30T05:45:39.795Z,77.06
2022-11-30T05:48:13.095Z,77.26
2022-11-30T05:50:47.371Z,77.37
2022-11-30T05:53:23.399Z,77.28
2022-11-30T05:55:56.311Z,76.86
2022-11-30T05:58:29.709Z,77.25
2022-11-30T06:01:02.902Z,77.15
2022-11-30T06:03:37.019Z,77.24
2022-11-30T06:06:11.483Z,77.38
2022-11-30T06:08:44.495Z,77.65
2022-11-30T06:11:17.903Z,77.29
2022-11-30T06:13:53.475Z,77.41
2022-11-30T06:16:26.671Z,77.61
2022-11-30T06:19:00.788Z,77.23
2022-11-30T06:21:35.601Z,77.12
2022-11-30T06:24:10.226Z,77.11
2022-11-30T06:26:43.080Z,77.16
2022-11-30T06:29:16.345Z,76.99
2022-11-30T06:31:49.354Z,76.83
2022-11-30T06:34:22.657Z,76.87
2022-11-30T06:36:58.632Z,77.16
2022-11-30T06:40:04.275Z,76.97
2022-11-30T06:42:25.259Z,76.94
2022-11-30T06:44:58.280Z,77.29
2022-11-30T06:47:31.299Z,77.09
2022-11-30T06:50:04.710Z,77.07
2022-11-30T06:52:39.518Z,77.18
2022-11-30T06:55:12.490Z,77.43
2022-11-30T06:57:45.883Z,77.35
2022-11-30T07:00:19.394Z,76.85
2022-11-30T07:02:52.319Z,77.03
2022-11-30T07:05:25.665Z,76.82
2022-11-30T07:08:00.210Z,77.29
2022-11-30T07:10:33.419Z,76.84
2022-11-30T07:13:06.476Z,76.61
2022-11-30T07:15:40.036Z,76.79
2022-11-30T07:18:13.330Z,76.63
2022-11-30T07:20:46.590Z,76.33
2022-11-30T07:23:38.123Z,76.49
2022-11-30T07:26:11.298Z,76.24
2022-11-30T07:28:46.193Z,76.67
2022-11-30T07:31:21.569Z,77.21
2022-11-30T07:33:54.919Z,77.03
2022-11-30T07:36:31.331Z,76.86
2022-11-30T07:39:06.209Z,76.83
2022-11-30T07:41:39.452Z,76.62
2022-11-30T07:44:12.951Z,76.41
2022-11-30T07:46:45.839Z,76.40
2022-11-30T07:49:18.941Z,76.51
2022-11-30T07:51:52.007Z,75.73
2022-11-30T07:54:26.217Z,75.97
2022-11-30T07:56:59.094Z,75.73
2022-11-30T07:59:31.976Z,75.39
2022-11-30T08:02:05.420Z,75.49
2022-11-30T08:04:38.461Z,75.52
2022-11-30T08:07:11.400Z,76.20
2022-11-30T08:09:46.247Z,75.69
2022-11-30T08:12:19.188Z,75.68
2022-11-30T08:15:18.743Z,75.48
2022-11-30T08:17:44.931Z,75.06
2022-11-30T08:20:18.209Z,75.38
2022-11-30T08:22:52.911Z,75.25
2022-11-30T08:25:27.192Z,75.10
2022-11-30T08:28:00.313Z,75.21
2022-11-30T08:30:33.322Z,75.26
2022-11-30T08:33:06.512Z,74.98
2022-11-30T08:35:39.341Z,75.23
2022-11-30T08:38:12.484Z,75.41
2022-11-30T08:40:46.723Z,75.15
2022-11-30T08:43:19.600Z,75.12
2022-11-30T08:45:54.543Z,75.35
2022-11-30T08:48:30.002Z,75.65
2022-11-30T08:51:03.687Z,75.68
2022-11-30T08:53:36.844Z,75.76
2022-11-30T08:56:14.056Z,75.39
2022-11-30T08:58:47.991Z,75.76
2022-11-30T09:01:22.560Z,76.32
2022-11-30T09:03:57.279Z,75.39
2022-11-30T09:06:31.867Z,75.67
2022-11-30T09:09:04.945Z,76.10
2022-11-30T09:11:39.252Z,75.74
2022-11-30T09:14:12.280Z,75.87
2022-11-30T09:16:45.125Z,76.28
2022-11-30T09:19:17.948Z,76.04
2022-11-30T09:21:52.115Z,75.76
2022-11-30T09:24:25.542Z,76.32
2022-11-30T09:26:59.801Z,76.30
2022-11-30T09:29:33.554Z,76.43
2022-11-30T09:32:10.425Z,76.51
2022-11-30T09:34:53.404Z,76.75
2022-11-30T09:37:26.426Z,77.01
2022-11-30T09:40:00.380Z,76.85
2022-11-30T09:42:47.139Z,76.44
2022-11-30T09:45:24.884Z,76.43
2022-11-30T09:48:18.801Z,76.63
2022-11-30T09:50:52.621Z,75.96
2022-11-30T09:53:30.087Z,75.74
2022-11-30T09:56:04.330Z,74.85
2022-11-30T09:58:49.091Z,75.12
2022-11-30T10:01:23.095Z,75.32
2022-11-30T10:03:58.151Z,75.05
2022-11-30T10:06:42.563Z,75.13
2022-11-30T10:09:30.863Z,74.48
2022-11-30T10:12:10.484Z,75.04
2022-11-30T10:15:16.678Z,74.90
2022-11-30T10:17:56.742Z,74.87
2022-11-30T10:20:53.054Z,74.88
2022-11-30T10:23:42.367Z,74.90
2022-11-30T10:26:17.733Z,76.36
2022-11-30T10:28:52.900Z,76.33
2022-11-30T10:31:34.456Z,76.41
2022-11-30T10:34:21.258Z,76.59
2022-11-30T10:37:04.742Z,76.40
2022-11-30T10:39:53.960Z,76.51
2022-11-30T10:42:33.916Z,75.98
2022-11-30T10:45:11.646Z,76.26
2022-11-30T10:47:51.438Z,76.01
2022-11-30T10:50:28.352Z,76.17
2022-11-30T10:53:02.465Z,74.97
2022-11-30T10:55:39.987Z,74.65
2022-11-30T10:58:20.942Z,74.32
2022-11-30T11:01:04.692Z,73.45
2022-11-30T11:03:39.309Z,73.64
2022-11-30T11:06:19.765Z,73.26
2022-11-30T11:08:52.637Z,73.97
2022-11-30T11:11:32.606Z,73.69
2022-11-30T11:14:20.698Z,72.64
2022-11-30T11:16:57.036Z,72.49
2022-11-30T11:19:37.524Z,73.23
2022-11-30T11:22:18.610Z,72.89
2022-11-30T11:24:54.494Z,73.47
2022-11-30T11:27:29.676Z,73.06
2022-11-30T11:30:07.927Z,72.77
2022-11-30T11:32:40.968Z,73.15
2022-11-30T11:35:37.470Z,72.55
2022-11-30T11:38:20.365Z,72.37
2022-11-30T11:40:55.844Z,72.59
2022-11-30T11:43:31.136Z,73.06
2022-11-30T11:46:12.744Z,72.76
2022-11-30T11:48:57.615Z,72.41
2022-11-30T11:51:33.765Z,72.29
2022-11-30T11:54:23.970Z,72.48
2022-11-30T11:56:57.771Z,72.65
2022-11-30T11:59:41.866Z,72.69
2022-11-30T12:02:28.741Z,72.71
2022-11-30T12:05:08.040Z,72.82
2022-11-30T12:07:47.863Z,72.39
2022-11-30T12:10:51.312Z,71.64
2022-11-30T12:13:23.035Z,72.44
2022-11-30T12:16:05.598Z,71.80
2022-11-30T12:18:50.759Z,70.90
2022-11-30T12:21:37.246Z,70.99
2022-11-30T12:24:35.146Z,70.69
2022-11-30T12:27:17.691Z,72.05
2022-11-30T12:30:02.324Z,71.75
2022-11-30T12:32:50.094Z,71.95
2022-11-30T12:35:35.315Z,71.58
2022-11-30T12:38:19.152Z,71.17
2022-11-30T12:41:01.679Z,71.36
2022-11-30T12:43:44.162Z,71.72
2022-11-30T12:46:24.328Z,71.06
2022-11-30T12:49:13.395Z,71.02
2022-11-30T12:51:53.430Z,71.82
2022-11-30T12:54:35.043Z,72.02
2022-11-30T12:57:17.212Z,71.73
2022-11-30T13:00:03.014Z,70.96
2022-11-30T13:03:12.216Z,71.42
2022-11-30T13:05:50.316Z,71.07
2022-11-30T13:08:28.737Z,71.62
2022-11-30T13:11:07.300Z,71.32
2022-11-30T13:13:50.144Z,71.39
2022-11-30T13:16:25.907Z,71.06
2022-11-30T13:19:02.962Z,71.35
2022-11-30T13:21:42.292Z,71.25
2022-11-30T13:24:21.409Z,71.58
2022-11-30T13:27:00.500Z,71.81
2022-11-30T13:30:13.457Z,71.47
2022-11-30T13:32:57.816Z,71.75
2022-11-30T13:35:53.567Z,71.12
2022-11-30T13:38:42.058Z,71.73
2022-11-30T13:41:21.843Z,70.78
2022-11-30T13:43:54.681Z,71.01
2022-11-30T13:46:28.941Z,71.16
2022-11-30T13:49:19.092Z,71.01
2022-11-30T13:52:19.989Z,71.51
2022-11-30T13:54:46.656Z,71.16
2022-11-30T13:57:55.454Z,71.39
2022-11-30T14:01:00.967Z,71.59
2022-11-30T14:03:35.330Z,71.73
2022-11-30T14:06:46.627Z,71.16
2022-11-30T14:10:09.462Z,70.79
2022-11-30T14:12:58.699Z,71.45
2022-11-30T14:15:53.398Z,70.62
2022-11-30T14:18:34.476Z,70.59
2022-11-30T14:21:17.934Z,70.04
2022-11-30T14:23:58.026Z,70.59
2022-11-30T14:26:37.192Z,70.35
2022-11-30T14:29:18.780Z,70.23
2022-11-30T14:31:57.355Z,70.05
2022-11-30T14:34:33.885Z,70.63
2022-11-30T14:37:17.229Z,70.24
2022-11-30T14:39:53.702Z,70.74
2022-11-30T14:42:30.125Z,70.72
2022-11-30T14:45:03.312Z,70.39
2022-11-30T14:47:37.209Z,70.31
2022-11-30T14:50:23.021Z,70.40
2022-11-30T14:53:21.386Z,70.51
2022-11-30T14:56:00.003Z,70.35
2022-11-30T14:58:41.272Z,70.56
2022-11-30T15:01:20.004Z,70.77
2022-11-30T15:03:55.538Z,71.01
2022-11-30T15:06:32.309Z,70.69
2022-11-30T15:09:05.287Z,71.31
2022-11-30T15:11:42.380Z,70.67
2022-11-30T15:14:17.452Z,70.68
2022-11-30T15:16:53.222Z,70.06
2022-11-30T15:19:28.372Z,70.22
2022-11-30T15:22:01.822Z,69.91
2022-11-30T15:24:34.769Z,69.74
2022-11-30T15:27:11.425Z,69.67
2022-11-30T15:29:51.313Z,69.15
2022-11-30T15:32:26.298Z,69.75
2022-11-30T15:35:00.961Z,69.58
2022-11-30T15:37:38.790Z,70.13
2022-11-30T15:40:17.183Z,69.73
2022-11-30T15:42:51.615Z,68.94
2022-11-30T15:45:28.402Z,69.21
2022-11-30T15:48:02.646Z,69.52
2022-11-30T15:50:41.161Z,69.42
2022-11-30T15:53:34.722Z,68.27
2022-11-30T15:56:09.099Z,69.88
2022-11-30T15:58:46.536Z,70.48
2022-11-30T16:01:24.722Z,69.98
2022-11-30T16:04:06.189Z,70.09
2022-11-30T16:06:47.185Z,70.20
2022-11-30T16:09:23.282Z,70.16
2022-11-30T16:11:58.864Z,70.45
2022-11-30T16:14:31.737Z,70.17
2022-11-30T16:17:09.113Z,69.94
2022-11-30T16:19:42.351Z,69.60
2022-11-30T16:22:16.675Z,69.53
2022-11-30T16:24:49.530Z,68.53
2022-11-30T16:27:22.652Z,68.49
2022-11-30T16:29:56.009Z,68.44
2022-11-30T16:32:30.393Z,68.90
2022-11-30T16:35:03.247Z,69.22
2022-11-30T16:37:36.260Z,68.89
2022-11-30T16:40:10.056Z,69.33
2022-11-30T16:42:43.085Z,69.33
2022-11-30T16:45:19.404Z,69.73
2022-11-30T16:47:53.939Z,69.81
2022-11-30T16:50:26.835Z,70.30
2022-11-30T16:53:00.468Z,70.26
2022-11-30T16:55:37.727Z,70.26
2022-11-30T16:58:10.907Z,70.21
2022-11-30T17:00:43.968Z,69.97
2022-11-30T17:03:22.501Z,69.73
2022-11-30T17:05:55.321Z,69.84
2022-11-30T17:08:28.522Z,69.94
2022-11-30T17:11:01.984Z,69.93
2022-11-30T17:13:34.776Z,70.22
2022-11-30T17:16:10.366Z,70.20
2022-11-30T17:18:44.611Z,70.21
2022-11-30T17:21:20.562Z,70.05
2022-11-30T17:23:53.448Z,70.60
2022-11-30T17:26:27.343Z,70.24
2022-11-30T17:29:00.284Z,70.31
2022-11-30T17:31:33.867Z,70.26
2022-11-30T17:34:08.591Z,69.61
2022-11-30T17:36:41.450Z,70.33
2022-11-30T17:39:14.279Z,70.17
2022-11-30T17:41:47.208Z,69.94
2022-11-30T17:44:20.012Z,70.32
2022-11-30T17:46:52.973Z,70.29
2022-11-30T17:49:27.171Z,69.83
2022-11-30T17:52:00.177Z,70.36
2022-11-30T17:54:33.097Z,70.53
2022-11-30T17:57:05.924Z,70.31
2022-11-30T17:59:38.735Z,70.44
2022-11-30T18:02:12.597Z,69.92
2022-11-30T18:04:47.107Z,70.17
2022-11-30T18:07:20.276Z,70.08
2022-11-30T18:09:53.212Z,70.18
2022-11-30T18:12:26.089Z,70.34
2022-11-30T18:14:58.990Z,70.17
2022-11-30T18:17:32.154Z,70.17
2022-11-30T18:20:07.900Z,70.45
2022-11-30T18:22:40.860Z,70.30
2022-11-30T18:25:15.532Z,70.45
2022-11-30T18:27:48.450Z,70.84
2022-11-30T18:30:21.626Z,70.75
2022-11-30T18:32:54.465Z,71.02
2022-11-30T18:35:28.760Z,70.25
2022-11-30T18:38:01.628Z,70.54
2022-11-30T18:40:34.396Z,70.65
2022-11-30T18:43:07.263Z,70.75
2022-11-30T18:45:40.142Z,70.60
2022-11-30T18:48:13.016Z,70.29
2022-11-30T18:50:47.202Z,70.17
2022-11-30T18:53:19.981Z,70.62
2022-11-30T18:55:52.860Z,70.58
2022-11-30T18:58:25.919Z,70.39
2022-11-30T19:01:07.949Z,70.62
2022-11-30T19:03:41.413Z,70.40
2022-11-30T19:06:38.765Z,69.99
2022-11-30T19:09:13.797Z,70.33
2022-11-30T19:11:47.063Z,70.17
2022-11-30T19:14:20.125Z,70.32
2022-11-30T19:16:53.186Z,70.33
2022-11-30T19:19:28.105Z,70.16
2022-11-30T19:22:02.626Z,70.77
2022-11-30T19:24:36.523Z,70.53
2022-11-30T19:27:09.460Z,70.06
2022-11-30T19:29:42.369Z,70.03
2022-11-30T19:32:15.206Z,69.86
2022-11-30T19:34:51.108Z,69.98
2022-11-30T19:37:25.706Z,69.87
2022-11-30T19:39:58.623Z,69.69
2022-11-30T19:42:32.259Z,69.80
2022-11-30T19:45:10.811Z,70.07
2022-11-30T19:47:43.781Z,70.26
2022-11-30T19:50:16.747Z,70.34
2022-11-30T19:52:51.238Z,70.10
2022-11-30T19:55:26.286Z,70.39
2022-11-30T19:57:59.168Z,69.89
2022-11-30T20:00:32.305Z,69.57
2022-11-30T20:03:09.753Z,69.86
2022-11-30T20:05:50.741Z,69.90
2022-11-30T20:08:25.203Z,69.78
2022-11-30T20:10:58.427Z,69.79
2022-11-30T20:13:34.475Z,69.54
2022-11-30T20:16:09.649Z,69.59
2022-11-30T20:18:46.245Z,69.34
2022-11-30T20:21:28.356Z,69.04
2022-11-30T20:24:14.025Z,69.70
2022-11-30T20:26:47.091Z,69.34
2022-11-30T20:29:19.867Z,69.00
2022-11-30T20:31:53.008Z,69.30
2022-11-30T20:34:33.998Z,68.92
2022-11-30T20:37:07.577Z,69.17
2022-11-30T20:39:45.663Z,69.13
2022-11-30T20:42:19.296Z,68.96
2022-11-30T20:44:52.160Z,68.81
2022-11-30T20:47:25.163Z,68.57
2022-11-30T20:49:58.505Z,68.44
2022-11-30T20:52:31.428Z,68.18
2022-11-30T20:55:06.051Z,67.97
2022-11-30T20:57:38.890Z,68.75
2022-11-30T21:00:13.471Z,68.53
2022-11-30T21:02:46.451Z,68.49
2022-11-30T21:05:19.948Z,68.51
2022-11-30T21:07:52.988Z,69.15
2022-11-30T21:10:27.210Z,68.66
2022-11-30T21:13:00.070Z,69.10
2022-11-30T21:15:33.102Z,69.11
2022-11-30T21:18:06.629Z,69.15
2022-11-30T21:20:39.473Z,69.54
2022-11-30T21:23:12.281Z,68.99
2022-11-30T21:25:46.823Z,69.12
2022-11-30T21:28:20.418Z,69.13
2022-11-30T21:30:53.250Z,69.30
2022-11-30T21:33:26.249Z,68.75
2022-11-30T21:35:59.071Z,69.16
2022-11-30T21:38:31.931Z,68.83
2022-11-30T21:41:06.633Z,68.53
2022-11-30T21:43:39.692Z,68.64
2022-11-30T21:46:14.313Z,68.43
2022-11-30T21:48:49.505Z,68.70
2022-11-30T21:51:24.081Z,68.48
2022-11-30T21:53:58.860Z,68.41
2022-11-30T21:56:34.735Z,67.89
2022-11-30T21:59:09.414Z,68.04
2022-11-30T22:01:44.731Z,68.45
2022-11-30T22:04:17.664Z,68.25
2022-11-30T22:06:50.526Z,68.41
2022-11-30T22:09:23.395Z,68.02
2022-11-30T22:11:57.791Z,68.33
2022-11-30T22:14:30.609Z,67.96
2022-11-30T22:17:03.449Z,68.33
2022-11-30T22:19:36.305Z,68.28
2022-11-30T22:22:09.071Z,67.84
2022-11-30T22:24:41.916Z,68.26
2022-11-30T22:27:16.296Z,67.68
2022-11-30T22:29:50.930Z,68.20
2022-11-30T22:32:23.799Z,67.68
2022-11-30T22:34:56.667Z,67.37
2022-11-30T22:37:29.514Z,67.87
2022-11-30T22:40:02.467Z,66.88
2022-11-30T22:42:38.095Z,67.05
2022-11-30T22:45:11.486Z,67.01
2022-11-30T22:47:44.384Z,67.41
2022-11-30T22:50:17.485Z,67.15
2022-11-30T22:53:04.903Z,67.46
2022-11-30T22:55:37.998Z,67.62
2022-11-30T22:58:12.316Z,67.66
2022-11-30T23:00:45.260Z,68.49
2022-11-30T23:03:18.235Z,68.27
2022-11-30T23:05:51.184Z,67.84
2022-11-30T23:08:23.971Z,68.29
2022-11-30T23:10:58.312Z,68.10
2022-11-30T23:13:32.591Z,68.40
2022-11-30T23:16:06.329Z,68.55
2022-11-30T23:18:41.510Z,68.07
2022-11-30T23:21:16.870Z,68.33
2022-11-30T23:57:42.824Z,67.59
